sensor_id;sensor_type;location;lat;lon;timestamp;P1;durP1;ratioP1;P2;durP2;ratioP2
417;SDS011;49;48.530;9.200;2022-10-04T00:00:57;11.33;;;9.03;;
417;SDS011;49;48.530;9.200;2022-10-04T00:03:28;14.23;;;8.97;;
417;SDS011;49;48.530;9.200;2022-10-04T00:05:59;15.37;;;9.20;;
417;SDS011;49;48.530;9.200;2022-10-04T00:08:28;11.30;;;8.17;;
417;SDS011;49;48.530;9.200;2022-10-04T00:11:04;11.17;;;7.70;;
417;SDS011;49;48.530;9.200;2022-10-04T00:13:38;10.10;;;7.47;;
417;SDS011;49;48.530;9.200;2022-10-04T00:16:06;9.43;;;6.30;;
417;SDS011;49;48.530;9.200;2022-10-04T00:18:44;7.67;;;6.73;;
417;SDS011;49;48.530;9.200;2022-10-04T00:21:11;14.60;;;8.27;;
417;SDS011;49;48.530;9.200;2022-10-04T00:23:42;11.80;;;8.43;;
417;SDS011;49;48.530;9.200;2022-10-04T00:27:08;11.87;;;9.20;;
417;SDS011;49;48.530;9.200;2022-10-04T00:29:36;9.63;;;8.43;;
417;SDS011;49;48.530;9.200;2022-10-04T00:34:51;13.57;;;8.47;;
417;SDS011;49;48.530;9.200;2022-10-04T00:37:19;12.50;;;7.67;;
417;SDS011;49;48.530;9.200;2022-10-04T00:39:47;15.30;;;8.40;;
417;SDS011;49;48.530;9.200;2022-10-04T00:42:33;9.57;;;7.80;;
417;SDS011;49;48.530;9.200;2022-10-04T00:45:20;10.30;;;7.30;;
417;SDS011;49;48.530;9.200;2022-10-04T00:48:02;8.13;;;6.93;;
417;SDS011;49;48.530;9.200;2022-10-04T00:50:45;7.70;;;6.27;;
417;SDS011;49;48.530;9.200;2022-10-04T00:53:18;12.53;;;6.70;;
417;SDS011;49;48.530;9.200;2022-10-04T00:56:02;12.20;;;5.87;;
417;SDS011;49;48.530;9.200;2022-10-04T00:58:36;17.13;;;5.30;;
417;SDS011;49;48.530;9.200;2022-10-04T01:01:11;9.00;;;5.53;;
417;SDS011;49;48.530;9.200;2022-10-04T01:03:38;5.97;;;5.17;;
417;SDS011;49;48.530;9.200;2022-10-04T01:06:08;5.67;;;5.13;;
417;SDS011;49;48.530;9.200;2022-10-04T01:08:38;5.57;;;4.60;;
417;SDS011;49;48.530;9.200;2022-10-04T01:11:12;12.50;;;5.10;;
417;SDS011;49;48.530;9.200;2022-10-04T01:13:44;5.80;;;5.17;;
417;SDS011;49;48.530;9.200;2022-10-04T01:16:16;5.83;;;4.77;;
417;SDS011;49;48.530;9.200;2022-10-04T01:18:44;8.57;;;5.30;;
417;SDS011;49;48.530;9.200;2022-10-04T01:21:20;8.70;;;5.13;;
417;SDS011;49;48.530;9.200;2022-10-04T01:23:53;8.43;;;5.47;;
417;SDS011;49;48.530;9.200;2022-10-04T01:26:46;9.70;;;4.90;;
417;SDS011;49;48.530;9.200;2022-10-04T01:29:14;26.70;;;5.40;;
417;SDS011;49;48.530;9.200;2022-10-04T01:31:43;46.67;;;5.27;;
417;SDS011;49;48.530;9.200;2022-10-04T01:34:13;20.30;;;5.50;;
417;SDS011;49;48.530;9.200;2022-10-04T01:36:42;18.77;;;5.83;;
417;SDS011;49;48.530;9.200;2022-10-04T01:39:13;127.10;;;9.10;;
417;SDS011;49;48.530;9.200;2022-10-04T01:41:42;98.90;;;6.40;;
417;SDS011;49;48.530;9.200;2022-10-04T01:44:16;67.73;;;5.10;;
417;SDS011;49;48.530;9.200;2022-10-04T01:46:48;25.13;;;5.20;;
417;SDS011;49;48.530;9.200;2022-10-04T01:49:18;5.60;;;4.10;;
417;SDS011;49;48.530;9.200;2022-10-04T01:51:50;13.53;;;4.20;;
417;SDS011;49;48.530;9.200;2022-10-04T01:54:24;48.00;;;5.60;;
417;SDS011;49;48.530;9.200;2022-10-04T01:57:00;45.47;;;5.57;;
417;SDS011;49;48.530;9.200;2022-10-04T01:59:34;50.23;;;5.10;;
417;SDS011;49;48.530;9.200;2022-10-04T02:02:06;42.73;;;5.20;;
417;SDS011;49;48.530;9.200;2022-10-04T02:04:40;44.93;;;5.50;;
417;SDS011;49;48.530;9.200;2022-10-04T02:07:11;60.97;;;6.20;;
417;SDS011;49;48.530;9.200;2022-10-04T02:09:42;54.23;;;5.30;;
417;SDS011;49;48.530;9.200;2022-10-04T02:12:13;29.47;;;4.77;;
417;SDS011;49;48.530;9.200;2022-10-04T02:14:43;28.70;;;4.93;;
417;SDS011;49;48.530;9.200;2022-10-04T02:17:17;34.77;;;4.63;;
417;SDS011;49;48.530;9.200;2022-10-04T02:19:46;7.23;;;4.23;;
417;SDS011;49;48.530;9.200;2022-10-04T02:22:14;5.10;;;4.40;;
417;SDS011;49;48.530;9.200;2022-10-04T02:24:44;9.90;;;4.83;;
417;SDS011;49;48.530;9.200;2022-10-04T02:27:14;11.77;;;6.97;;
417;SDS011;49;48.530;9.200;2022-10-04T02:29:41;31.83;;;7.63;;
417;SDS011;49;48.530;9.200;2022-10-04T02:32:08;50.50;;;5.67;;
417;SDS011;49;48.530;9.200;2022-10-04T02:34:54;11.90;;;4.83;;
417;SDS011;49;48.530;9.200;2022-10-04T02:37:22;63.93;;;4.87;;
417;SDS011;49;48.530;9.200;2022-10-04T02:39:52;5.27;;;4.10;;
417;SDS011;49;48.530;9.200;2022-10-04T02:42:26;88.80;;;7.80;;
417;SDS011;49;48.530;9.200;2022-10-04T02:45:04;128.83;;;6.23;;
417;SDS011;49;48.530;9.200;2022-10-04T02:47:41;208.53;;;7.60;;
417;SDS011;49;48.530;9.200;2022-10-04T02:50:16;141.87;;;6.77;;
417;SDS011;49;48.530;9.200;2022-10-04T02:52:49;205.20;;;7.03;;
417;SDS011;49;48.530;9.200;2022-10-04T02:55:25;145.50;;;6.10;;
417;SDS011;49;48.530;9.200;2022-10-04T02:57:54;179.17;;;7.50;;
417;SDS011;49;48.530;9.200;2022-10-04T03:00:24;63.63;;;5.83;;
417;SDS011;49;48.530;9.200;2022-10-04T03:03:07;127.63;;;6.87;;
417;SDS011;49;48.530;9.200;2022-10-04T03:05:41;145.30;;;6.37;;
417;SDS011;49;48.530;9.200;2022-10-04T03:08:10;166.87;;;7.57;;
417;SDS011;49;48.530;9.200;2022-10-04T03:10:38;161.13;;;7.10;;
417;SDS011;49;48.530;9.200;2022-10-04T03:13:07;128.40;;;7.13;;
417;SDS011;49;48.530;9.200;2022-10-04T03:15:35;235.43;;;8.77;;
417;SDS011;49;48.530;9.200;2022-10-04T03:18:03;148.77;;;7.80;;
417;SDS011;49;48.530;9.200;2022-10-04T03:20:30;116.93;;;5.60;;
417;SDS011;49;48.530;9.200;2022-10-04T03:23:01;90.03;;;6.23;;
417;SDS011;49;48.530;9.200;2022-10-04T03:25:34;118.80;;;7.03;;
417;SDS011;49;48.530;9.200;2022-10-04T03:28:08;143.07;;;7.17;;
417;SDS011;49;48.530;9.200;2022-10-04T03:30:35;105.73;;;6.90;;
417;SDS011;49;48.530;9.200;2022-10-04T03:33:02;111.80;;;7.03;;
417;SDS011;49;48.530;9.200;2022-10-04T03:35:32;25.83;;;5.07;;
417;SDS011;49;48.530;9.200;2022-10-04T03:38:03;29.03;;;5.97;;
417;SDS011;49;48.530;9.200;2022-10-04T03:40:33;23.10;;;5.00;;
417;SDS011;49;48.530;9.200;2022-10-04T03:43:03;34.47;;;5.97;;
417;SDS011;49;48.530;9.200;2022-10-04T03:45:33;86.73;;;6.60;;
417;SDS011;49;48.530;9.200;2022-10-04T03:48:01;29.77;;;5.47;;
417;SDS011;49;48.530;9.200;2022-10-04T03:50:30;42.00;;;6.10;;
417;SDS011;49;48.530;9.200;2022-10-04T03:53:00;133.10;;;6.93;;
417;SDS011;49;48.530;9.200;2022-10-04T03:55:35;44.27;;;5.00;;
417;SDS011;49;48.530;9.200;2022-10-04T03:58:04;94.37;;;6.90;;
417;SDS011;49;48.530;9.200;2022-10-04T04:00:39;39.30;;;5.10;;
417;SDS011;49;48.530;9.200;2022-10-04T04:03:10;49.23;;;5.77;;
417;SDS011;49;48.530;9.200;2022-10-04T04:05:43;124.50;;;6.93;;
417;SDS011;49;48.530;9.200;2022-10-04T04:08:16;250.67;;;9.60;;
417;SDS011;49;48.530;9.200;2022-10-04T04:10:52;134.63;;;7.90;;
417;SDS011;49;48.530;9.200;2022-10-04T04:13:21;43.23;;;5.70;;
417;SDS011;49;48.530;9.200;2022-10-04T04:15:54;31.47;;;5.97;;
417;SDS011;49;48.530;9.200;2022-10-04T04:18:22;21.50;;;5.17;;
417;SDS011;49;48.530;9.200;2022-10-04T04:20:51;107.83;;;6.43;;
417;SDS011;49;48.530;9.200;2022-10-04T04:23:23;47.83;;;5.40;;
417;SDS011;49;48.530;9.200;2022-10-04T04:25:55;147.03;;;8.63;;
417;SDS011;49;48.530;9.200;2022-10-04T04:28:37;111.20;;;7.20;;
417;SDS011;49;48.530;9.200;2022-10-04T04:31:11;77.67;;;6.57;;
417;SDS011;49;48.530;9.200;2022-10-04T04:33:44;29.90;;;4.80;;
417;SDS011;49;48.530;9.200;2022-10-04T04:36:15;80.40;;;6.90;;
417;SDS011;49;48.530;9.200;2022-10-04T04:38:42;76.23;;;6.53;;
417;SDS011;49;48.530;9.200;2022-10-04T04:41:23;22.93;;;6.33;;
417;SDS011;49;48.530;9.200;2022-10-04T04:43:51;144.90;;;8.50;;
417;SDS011;49;48.530;9.200;2022-10-04T04:46:19;62.90;;;5.77;;
417;SDS011;49;48.530;9.200;2022-10-04T04:48:47;114.20;;;7.37;;
417;SDS011;49;48.530;9.200;2022-10-04T04:51:25;14.30;;;4.93;;
417;SDS011;49;48.530;9.200;2022-10-04T04:53:52;37.10;;;6.00;;
417;SDS011;49;48.530;9.200;2022-10-04T04:56:22;23.53;;;5.17;;
417;SDS011;49;48.530;9.200;2022-10-04T04:58:53;11.73;;;4.00;;
417;SDS011;49;48.530;9.200;2022-10-04T05:01:25;129.83;;;6.63;;
417;SDS011;49;48.530;9.200;2022-10-04T05:03:59;111.97;;;5.87;;
417;SDS011;49;48.530;9.200;2022-10-04T05:06:27;136.80;;;6.93;;
417;SDS011;49;48.530;9.200;2022-10-04T05:08:55;140.53;;;7.17;;
417;SDS011;49;48.530;9.200;2022-10-04T05:11:23;133.27;;;7.80;;
417;SDS011;49;48.530;9.200;2022-10-04T05:13:55;117.00;;;8.13;;
417;SDS011;49;48.530;9.200;2022-10-04T05:16:29;144.23;;;7.73;;
417;SDS011;49;48.530;9.200;2022-10-04T05:19:03;124.00;;;6.73;;
417;SDS011;49;48.530;9.200;2022-10-04T05:21:33;33.70;;;5.60;;
417;SDS011;49;48.530;9.200;2022-10-04T05:24:06;53.50;;;6.33;;
417;SDS011;49;48.530;9.200;2022-10-04T05:26:36;34.70;;;6.03;;
417;SDS011;49;48.530;9.200;2022-10-04T05:29:06;24.70;;;5.90;;
417;SDS011;49;48.530;9.200;2022-10-04T05:31:40;22.80;;;5.00;;
417;SDS011;49;48.530;9.200;2022-10-04T05:34:16;20.70;;;6.17;;
417;SDS011;49;48.530;9.200;2022-10-04T05:36:50;53.43;;;7.03;;
417;SDS011;49;48.530;9.200;2022-10-04T05:39:28;11.43;;;5.17;;
417;SDS011;49;48.530;9.200;2022-10-04T05:42:01;52.67;;;5.97;;
417;SDS011;49;48.530;9.200;2022-10-04T05:44:36;78.73;;;5.63;;
417;SDS011;49;48.530;9.200;2022-10-04T05:47:13;143.47;;;7.33;;
417;SDS011;49;48.530;9.200;2022-10-04T05:49:42;40.30;;;4.90;;
417;SDS011;49;48.530;9.200;2022-10-04T05:52:12;144.43;;;7.63;;
417;SDS011;49;48.530;9.200;2022-10-04T05:54:42;56.53;;;5.97;;
417;SDS011;49;48.530;9.200;2022-10-04T06:00:10;23.53;;;4.50;;
417;SDS011;49;48.530;9.200;2022-10-04T06:02:48;49.33;;;5.27;;
417;SDS011;49;48.530;9.200;2022-10-04T06:05:39;13.10;;;4.73;;
417;SDS011;49;48.530;9.200;2022-10-04T06:08:16;56.13;;;5.47;;
417;SDS011;49;48.530;9.200;2022-10-04T06:11:12;22.27;;;5.30;;
417;SDS011;49;48.530;9.200;2022-10-04T06:14:06;24.33;;;5.87;;
417;SDS011;49;48.530;9.200;2022-10-04T06:16:53;72.60;;;6.00;;
417;SDS011;49;48.530;9.200;2022-10-04T06:19:54;37.30;;;5.90;;
417;SDS011;49;48.530;9.200;2022-10-04T06:22:43;52.60;;;6.20;;
417;SDS011;49;48.530;9.200;2022-10-04T06:25:13;63.27;;;5.83;;
417;SDS011;49;48.530;9.200;2022-10-04T06:27:47;83.97;;;12.50;;
417;SDS011;49;48.530;9.200;2022-10-04T06:30:19;43.80;;;6.77;;
417;SDS011;49;48.530;9.200;2022-10-04T06:32:58;10.80;;;5.20;;
417;SDS011;49;48.530;9.200;2022-10-04T06:44:56;8.97;;;5.57;;
417;SDS011;49;48.530;9.200;2022-10-04T06:47:39;33.47;;;5.80;;
417;SDS011;49;48.530;9.200;2022-10-04T06:50:23;23.80;;;5.80;;
417;SDS011;49;48.530;9.200;2022-10-04T06:53:06;11.03;;;5.23;;
417;SDS011;49;48.530;9.200;2022-10-04T06:58:56;7.57;;;5.87;;
417;SDS011;49;48.530;9.200;2022-10-04T07:01:48;11.00;;;6.20;;
417;SDS011;49;48.530;9.200;2022-10-04T07:04:24;18.47;;;12.03;;
417;SDS011;49;48.530;9.200;2022-10-04T07:07:06;12.10;;;7.37;;
417;SDS011;49;48.530;9.200;2022-10-04T07:10:01;5.80;;;5.23;;
417;SDS011;49;48.530;9.200;2022-10-04T07:12:44;5.10;;;4.73;;
417;SDS011;49;48.530;9.200;2022-10-04T07:15:19;9.00;;;5.50;;
417;SDS011;49;48.530;9.200;2022-10-04T07:17:49;10.37;;;5.50;;
417;SDS011;49;48.530;9.200;2022-10-04T07:20:19;10.33;;;4.97;;
417;SDS011;49;48.530;9.200;2022-10-04T07:22:51;5.80;;;4.90;;
417;SDS011;49;48.530;9.200;2022-10-04T07:25:26;9.03;;;6.03;;
417;SDS011;49;48.530;9.200;2022-10-04T07:27:57;8.40;;;6.53;;
417;SDS011;49;48.530;9.200;2022-10-04T07:30:45;8.07;;;5.43;;
417;SDS011;49;48.530;9.200;2022-10-04T07:33:19;8.63;;;6.30;;
417;SDS011;49;48.530;9.200;2022-10-04T07:35:47;8.03;;;5.67;;
417;SDS011;49;48.530;9.200;2022-10-04T07:38:19;9.27;;;5.33;;
417;SDS011;49;48.530;9.200;2022-10-04T07:41:02;9.60;;;6.37;;
417;SDS011;49;48.530;9.200;2022-10-04T07:43:48;9.17;;;6.70;;
417;SDS011;49;48.530;9.200;2022-10-04T07:49:11;7.97;;;6.23;;
417;SDS011;49;48.530;9.200;2022-10-04T07:51:41;5.90;;;5.30;;
417;SDS011;49;48.530;9.200;2022-10-04T07:54:21;10.07;;;5.70;;
417;SDS011;49;48.530;9.200;2022-10-04T07:56:56;7.10;;;5.90;;
417;SDS011;49;48.530;9.200;2022-10-04T07:59:31;5.50;;;4.67;;
417;SDS011;49;48.530;9.200;2022-10-04T08:02:12;9.70;;;5.53;;
417;SDS011;49;48.530;9.200;2022-10-04T08:04:48;9.23;;;5.87;;
417;SDS011;49;48.530;9.200;2022-10-04T08:07:23;12.83;;;5.90;;
417;SDS011;49;48.530;9.200;2022-10-04T08:09:57;11.77;;;6.13;;
417;SDS011;49;48.530;9.200;2022-10-04T08:12:33;10.43;;;6.33;;
417;SDS011;49;48.530;9.200;2022-10-04T08:15:22;9.67;;;6.17;;
417;SDS011;49;48.530;9.200;2022-10-04T08:17:59;10.33;;;6.10;;
417;SDS011;49;48.530;9.200;2022-10-04T08:20:35;9.87;;;5.50;;
417;SDS011;49;48.530;9.200;2022-10-04T08:23:15;9.60;;;6.10;;
417;SDS011;49;48.530;9.200;2022-10-04T08:25:51;9.00;;;5.27;;
417;SDS011;49;48.530;9.200;2022-10-04T08:28:29;11.30;;;6.23;;
417;SDS011;49;48.530;9.200;2022-10-04T08:31:25;8.80;;;6.80;;
417;SDS011;49;48.530;9.200;2022-10-04T08:34:01;9.87;;;6.37;;
417;SDS011;49;48.530;9.200;2022-10-04T08:36:45;8.17;;;5.97;;
417;SDS011;49;48.530;9.200;2022-10-04T08:39:27;12.30;;;6.20;;
417;SDS011;49;48.530;9.200;2022-10-04T08:42:22;11.43;;;6.30;;
417;SDS011;49;48.530;9.200;2022-10-04T09:06:35;8.87;;;6.70;;
417;SDS011;49;48.530;9.200;2022-10-04T09:12:31;8.60;;;5.97;;
417;SDS011;49;48.530;9.200;2022-10-04T09:15:22;6.40;;;5.30;;
417;SDS011;49;48.530;9.200;2022-10-04T09:18:01;8.50;;;6.40;;
417;SDS011;49;48.530;9.200;2022-10-04T09:20:46;10.47;;;6.80;;
417;SDS011;49;48.530;9.200;2022-10-04T09:23:34;13.90;;;6.40;;
417;SDS011;49;48.530;9.200;2022-10-04T09:26:26;13.57;;;7.60;;
417;SDS011;49;48.530;9.200;2022-10-04T09:29:07;10.60;;;6.70;;
417;SDS011;49;48.530;9.200;2022-10-04T20:26:06;18.00;;;7.20;;
417;SDS011;49;48.530;9.200;2022-10-04T20:28:39;14.70;;;7.93;;
417;SDS011;49;48.530;9.200;2022-10-04T20:31:07;46.17;;;23.57;;
417;SDS011;49;48.530;9.200;2022-10-04T20:42:28;17.37;;;10.80;;
417;SDS011;49;48.530;9.200;2022-10-04T20:45:00;13.00;;;8.13;;
417;SDS011;49;48.530;9.200;2022-10-04T20:47:35;15.60;;;8.30;;
417;SDS011;49;48.530;9.200;2022-10-04T20:53:11;9.43;;;6.50;;
417;SDS011;49;48.530;9.200;2022-10-04T20:55:40;11.80;;;8.97;;
417;SDS011;49;48.530;9.200;2022-10-04T20:58:30;9.30;;;6.10;;
417;SDS011;49;48.530;9.200;2022-10-04T21:01:00;22.00;;;8.20;;
417;SDS011;49;48.530;9.200;2022-10-04T21:03:40;10.53;;;6.50;;
417;SDS011;49;48.530;9.200;2022-10-04T21:06:08;11.20;;;7.57;;
417;SDS011;49;48.530;9.200;2022-10-04T21:08:36;9.60;;;6.50;;
417;SDS011;49;48.530;9.200;2022-10-04T21:11:15;13.40;;;7.13;;
417;SDS011;49;48.530;9.200;2022-10-04T21:13:49;9.30;;;6.47;;
417;SDS011;49;48.530;9.200;2022-10-04T21:16:33;14.80;;;7.67;;
417;SDS011;49;48.530;9.200;2022-10-04T21:25:05;10.03;;;6.30;;
417;SDS011;49;48.530;9.200;2022-10-04T21:27:53;15.30;;;6.90;;
417;SDS011;49;48.530;9.200;2022-10-04T21:30:41;14.80;;;7.73;;
417;SDS011;49;48.530;9.200;2022-10-04T21:33:08;8.70;;;6.20;;
417;SDS011;49;48.530;9.200;2022-10-04T21:35:35;11.70;;;6.17;;
417;SDS011;49;48.530;9.200;2022-10-04T21:38:01;11.00;;;6.20;;
417;SDS011;49;48.530;9.200;2022-10-04T21:40:29;9.40;;;6.30;;
417;SDS011;49;48.530;9.200;2022-10-04T21:42:56;8.77;;;6.17;;
417;SDS011;49;48.530;9.200;2022-10-04T21:45:23;10.80;;;6.53;;
417;SDS011;49;48.530;9.200;2022-10-04T21:47:52;8.37;;;6.10;;
417;SDS011;49;48.530;9.200;2022-10-04T21:50:18;8.20;;;6.00;;
417;SDS011;49;48.530;9.200;2022-10-04T21:52:45;6.70;;;5.07;;
417;SDS011;49;48.530;9.200;2022-10-04T21:55:12;8.93;;;5.47;;
417;SDS011;49;48.530;9.200;2022-10-04T21:57:39;8.33;;;5.17;;
417;SDS011;49;48.530;9.200;2022-10-04T22:00:06;10.80;;;6.47;;
417;SDS011;49;48.530;9.200;2022-10-04T22:02:34;8.80;;;6.20;;
417;SDS011;49;48.530;9.200;2022-10-04T22:05:03;6.70;;;5.30;;
417;SDS011;49;48.530;9.200;2022-10-04T22:07:30;10.30;;;5.90;;
417;SDS011;49;48.530;9.200;2022-10-04T22:09:57;13.17;;;6.30;;
417;SDS011;49;48.530;9.200;2022-10-04T22:12:24;8.33;;;7.03;;
417;SDS011;49;48.530;9.200;2022-10-04T22:14:51;14.27;;;5.40;;
417;SDS011;49;48.530;9.200;2022-10-04T22:17:18;9.60;;;6.20;;
417;SDS011;49;48.530;9.200;2022-10-04T22:19:44;9.73;;;6.23;;
417;SDS011;49;48.530;9.200;2022-10-04T22:22:15;7.97;;;4.73;;
417;SDS011;49;48.530;9.200;2022-10-04T22:24:42;6.50;;;5.20;;
417;SDS011;49;48.530;9.200;2022-10-04T22:27:10;9.97;;;6.20;;
417;SDS011;49;48.530;9.200;2022-10-04T22:29:39;9.07;;;6.03;;
417;SDS011;49;48.530;9.200;2022-10-04T22:32:09;12.53;;;8.80;;
417;SDS011;49;48.530;9.200;2022-10-04T22:34:38;13.53;;;7.77;;
417;SDS011;49;48.530;9.200;2022-10-04T22:37:07;7.80;;;5.60;;
417;SDS011;49;48.530;9.200;2022-10-04T22:39:38;14.97;;;7.83;;
417;SDS011;49;48.530;9.200;2022-10-04T22:42:04;19.30;;;7.20;;
417;SDS011;49;48.530;9.200;2022-10-04T22:44:33;11.20;;;7.07;;
417;SDS011;49;48.530;9.200;2022-10-04T22:47:10;10.23;;;6.73;;
417;SDS011;49;48.530;9.200;2022-10-04T22:49:39;13.80;;;7.10;;
417;SDS011;49;48.530;9.200;2022-10-04T22:52:10;9.73;;;6.80;;
417;SDS011;49;48.530;9.200;2022-10-04T22:54:42;8.30;;;5.73;;
417;SDS011;49;48.530;9.200;2022-10-04T22:57:11;10.03;;;5.77;;
417;SDS011;49;48.530;9.200;2022-10-04T22:59:39;24.30;;;8.00;;
417;SDS011;49;48.530;9.200;2022-10-04T23:02:10;10.80;;;7.37;;
417;SDS011;49;48.530;9.200;2022-10-04T23:04:39;8.20;;;5.90;;
417;SDS011;49;48.530;9.200;2022-10-04T23:07:09;7.80;;;5.87;;
417;SDS011;49;48.530;9.200;2022-10-04T23:09:36;11.20;;;6.00;;
417;SDS011;49;48.530;9.200;2022-10-04T23:12:06;8.40;;;5.40;;
417;SDS011;49;48.530;9.200;2022-10-04T23:14:34;19.40;;;8.03;;
417;SDS011;49;48.530;9.200;2022-10-04T23:17:03;11.33;;;6.90;;
417;SDS011;49;48.530;9.200;2022-10-04T23:19:41;15.40;;;7.53;;
417;SDS011;49;48.530;9.200;2022-10-04T23:22:08;10.37;;;6.93;;
417;SDS011;49;48.530;9.200;2022-10-04T23:24:39;10.50;;;6.50;;
417;SDS011;49;48.530;9.200;2022-10-04T23:27:08;7.10;;;5.33;;
417;SDS011;49;48.530;9.200;2022-10-04T23:29:40;14.30;;;6.07;;
417;SDS011;49;48.530;9.200;2022-10-04T23:32:08;10.90;;;6.33;;
417;SDS011;49;48.530;9.200;2022-10-04T23:34:37;13.30;;;4.93;;
417;SDS011;49;48.530;9.200;2022-10-04T23:37:10;12.70;;;5.90;;
417;SDS011;49;48.530;9.200;2022-10-04T23:39:40;7.57;;;5.40;;
417;SDS011;49;48.530;9.200;2022-10-04T23:42:11;8.77;;;5.50;;
417;SDS011;49;48.530;9.200;2022-10-04T23:44:42;10.67;;;6.13;;
417;SDS011;49;48.530;9.200;2022-10-04T23:47:10;11.40;;;6.80;;
417;SDS011;49;48.530;9.200;2022-10-04T23:49:40;11.27;;;5.87;;
417;SDS011;49;48.530;9.200;2022-10-04T23:52:12;12.83;;;6.50;;
417;SDS011;49;48.530;9.200;2022-10-04T23:54:43;11.50;;;5.83;;
417;SDS011;49;48.530;9.200;2022-10-04T23:57:19;9.40;;;6.30;;
417;SDS011;49;48.530;9.200;2022-10-04T23:59:49;13.33;;;6.47;;
